createdAt,value
2022-10-13T00:00:35.956Z,101997.06
2022-10-13T00:03:41.969Z,102002.28
2022-10-13T00:06:46.933Z,101997.94
2022-10-13T00:09:50.805Z,101997.06
2022-10-13T00:12:55.187Z,102002.28
2022-10-13T00:15:58.791Z,101995.31
2022-10-13T00:19:02.537Z,102001.41
2022-10-13T00:22:07.781Z,101995.31
2022-10-13T00:25:11.566Z,101990.09
2022-10-13T00:28:16.410Z,101988.38
2022-10-13T00:31:24.591Z,101990.13
2022-10-13T00:34:28.395Z,101993.59
2022-10-13T00:37:33.455Z,101990.97
2022-10-13T00:40:46.254Z,101992.75
2022-10-13T00:43:57.177Z,101987.50
2022-10-13T00:47:00.955Z,101988.38
2022-10-13T00:50:06.331Z,101986.66
2022-10-13T00:53:13.071Z,101990.13
2022-10-13T00:56:20.829Z,101992.66
2022-10-13T00:59:29.328Z,101990.94
2022-10-13T01:02:37.877Z,101988.31
2022-10-13T01:05:43.812Z,101992.66
2022-10-13T01:08:48.964Z,101980.50
2022-10-13T01:12:11.783Z,101983.09
2022-10-13T01:15:27.046Z,101976.16
2022-10-13T01:18:40.512Z,101979.63
2022-10-13T01:21:57.860Z,101977.91
2022-10-13T01:25:24.557Z,101966.59
2022-10-13T01:29:00.400Z,101977.94
2022-10-13T01:32:17.823Z,101973.59
2022-10-13T01:35:34.400Z,101966.66
2022-10-13T01:38:50.037Z,101957.09
2022-10-13T01:42:05.520Z,101950.13
2022-10-13T01:45:12.370Z,101944.03
2022-10-13T01:48:20.575Z,101944.03
2022-10-13T01:51:28.308Z,101936.22
2022-10-13T01:54:33.495Z,101930.16
2022-10-13T01:57:41.665Z,101929.28
2022-10-13T02:01:00.445Z,101931.03
2022-10-13T02:04:24.644Z,101930.16
2022-10-13T02:07:37.506Z,101931.00
2022-10-13T02:10:53.278Z,101924.03
2022-10-13T02:14:07.024Z,101924.03
2022-10-13T02:17:12.284Z,101915.34
2022-10-13T02:20:20.413Z,101907.50
2022-10-13T02:23:25.114Z,101907.50
2022-10-13T02:26:30.706Z,101911.00
2022-10-13T02:29:34.431Z,101904.91
2022-10-13T02:32:38.011Z,101903.16
2022-10-13T02:35:43.571Z,101897.09
2022-10-13T02:38:47.171Z,101901.41
2022-10-13T02:41:50.753Z,101899.69
2022-10-13T02:44:54.354Z,101902.31
2022-10-13T02:47:58.300Z,101893.59
2022-10-13T02:51:03.427Z,101886.66
2022-10-13T02:54:07.102Z,101885.75
2022-10-13T02:57:10.659Z,101884.03
2022-10-13T03:00:16.429Z,101884.03
2022-10-13T03:03:20.050Z,101884.91
2022-10-13T03:06:24.988Z,101885.75
2022-10-13T03:09:28.886Z,101886.66
2022-10-13T03:12:32.756Z,101886.63
2022-10-13T03:15:36.573Z,101888.41
2022-10-13T03:18:40.315Z,101889.25
2022-10-13T03:21:45.472Z,101889.25
2022-10-13T03:24:49.089Z,101888.41
2022-10-13T03:27:52.740Z,101890.13
2022-10-13T03:31:02.866Z,101892.75
2022-10-13T03:34:06.418Z,101892.72
2022-10-13T03:37:11.422Z,101894.47
2022-10-13T03:40:15.068Z,101892.72
2022-10-13T03:43:18.678Z,101887.50
2022-10-13T03:46:23.929Z,101890.97
2022-10-13T03:49:27.491Z,101885.78
2022-10-13T03:52:32.584Z,101890.09
2022-10-13T03:55:36.168Z,101892.72
2022-10-13T03:58:39.749Z,101890.09
2022-10-13T04:01:43.620Z,101884.00
2022-10-13T04:04:47.343Z,101877.03
2022-10-13T04:07:52.335Z,101870.06
2022-10-13T04:11:01.179Z,101859.63
2022-10-13T04:14:05.102Z,101863.97
2022-10-13T04:17:08.826Z,101863.13
2022-10-13T04:20:13.115Z,101846.63
2022-10-13T04:23:18.131Z,101844.88
2022-10-13T04:26:24.107Z,101844.00
2022-10-13T04:29:27.742Z,101851.84
2022-10-13T04:32:31.933Z,101845.75
2022-10-13T04:35:40.242Z,101842.25
2022-10-13T04:38:45.780Z,101843.97
2022-10-13T04:41:49.390Z,101837.03
2022-10-13T04:44:52.929Z,101815.28
2022-10-13T04:47:56.522Z,101805.72
2022-10-13T04:51:02.150Z,101811.78
2022-10-13T04:54:07.519Z,101808.28
2022-10-13T04:57:11.232Z,101812.63
2022-10-13T05:00:15.900Z,101816.97
2022-10-13T05:03:19.990Z,101820.41
2022-10-13T05:06:26.663Z,101826.50
2022-10-13T05:09:31.809Z,101824.69
2022-10-13T05:12:36.097Z,101838.66
2022-10-13T05:15:40.807Z,101835.16
2022-10-13T05:18:44.990Z,101813.28
2022-10-13T05:21:48.592Z,101804.59
2022-10-13T05:24:53.477Z,101792.38
2022-10-13T05:27:57.074Z,101794.09
2022-10-13T05:31:11.966Z,101791.47
2022-10-13T05:34:15.717Z,101801.91
2022-10-13T05:37:19.369Z,101794.94
2022-10-13T05:40:24.500Z,101795.81
2022-10-13T05:43:28.038Z,101795.78
2022-10-13T05:46:32.162Z,101792.28
2022-10-13T05:49:39.851Z,101794.88
2022-10-13T05:52:45.468Z,101800.09
2022-10-13T05:55:51.202Z,101798.34
2022-10-13T05:59:01.598Z,101799.19
2022-10-13T06:02:10.742Z,101796.56
2022-10-13T06:05:19.530Z,101789.59
2022-10-13T06:08:23.374Z,101794.78
2022-10-13T06:11:29.026Z,101797.38
2022-10-13T06:14:32.984Z,101795.63
2022-10-13T06:17:38.394Z,101795.59
2022-10-13T06:20:42.699Z,101797.31
2022-10-13T06:23:46.203Z,101785.13
2022-10-13T06:26:51.633Z,101784.22
2022-10-13T06:29:55.805Z,101778.03
2022-10-13T06:32:59.479Z,101776.25
2022-10-13T06:36:04.463Z,101767.50
2022-10-13T06:39:08.542Z,101785.75
2022-10-13T06:42:13.611Z,101774.41
2022-10-13T06:45:17.406Z,101771.75
2022-10-13T06:48:20.949Z,101776.94
2022-10-13T06:51:24.603Z,101773.34
2022-10-13T06:54:28.730Z,101787.22
2022-10-13T06:57:34.307Z,101790.66
2022-10-13T07:00:38.336Z,101783.66
2022-10-13T07:03:42.384Z,101783.59
2022-10-13T07:06:46.122Z,101785.34
2022-10-13T07:09:49.747Z,101771.22
2022-10-13T07:12:54.680Z,101766.81
2022-10-13T07:15:58.310Z,101759.88
2022-10-13T07:19:01.899Z,101751.06
2022-10-13T07:22:06.513Z,101753.63
2022-10-13T07:25:11.180Z,101771.03
2022-10-13T07:28:16.315Z,101777.00
2022-10-13T07:31:22.150Z,101770.38
2022-10-13T07:34:25.790Z,101758.28
2022-10-13T07:37:29.401Z,101759.69
2022-10-13T07:40:33.106Z,101758.78
2022-10-13T07:43:38.535Z,101763.16
2022-10-13T07:46:42.308Z,101760.19
2022-10-13T07:49:46.083Z,101754.88
2022-10-13T07:52:49.767Z,101739.22
2022-10-13T07:55:53.394Z,101765.41
2022-10-13T07:58:58.879Z,101761.16
2022-10-13T08:02:02.891Z,101761.94
2022-10-13T08:05:07.470Z,101757.25
2022-10-13T08:08:11.056Z,101757.81
2022-10-13T08:11:17.517Z,101757.69
2022-10-13T08:14:22.998Z,101765.22
2022-10-13T08:17:26.602Z,101760.44
2022-10-13T08:20:40.979Z,101746.41
2022-10-13T08:23:47.646Z,101748.72
2022-10-13T08:26:52.190Z,101743.41
2022-10-13T08:29:57.142Z,101743.00
2022-10-13T08:33:00.979Z,101736.28
2022-10-13T08:36:05.620Z,101739.75
2022-10-13T08:39:11.127Z,101733.97
2022-10-13T08:42:19.048Z,101731.03
2022-10-13T08:45:42.006Z,101710.28
2022-10-13T08:48:46.119Z,101718.34
2022-10-13T08:51:49.973Z,101719.66
2022-10-13T08:54:58.479Z,101716.91
2022-10-13T08:58:11.070Z,101713.34
2022-10-13T09:01:20.273Z,101720.25
2022-10-13T09:04:33.240Z,101714.09
2022-10-13T09:07:41.132Z,101711.28
2022-10-13T09:10:52.401Z,101703.56
2022-10-13T09:13:58.737Z,101684.50
2022-10-13T09:17:19.691Z,101678.97
2022-10-13T09:20:27.923Z,101671.53
2022-10-13T09:23:31.562Z,101676.47
2022-10-13T09:26:40.407Z,101667.09
2022-10-13T09:29:45.135Z,101670.38
2022-10-13T09:32:50.150Z,101665.19
2022-10-13T09:36:14.865Z,101673.09
2022-10-13T09:39:19.553Z,101672.66
2022-10-13T09:42:28.411Z,101676.94
2022-10-13T09:45:32.248Z,101670.16
2022-10-13T09:48:42.528Z,101677.44
2022-10-13T09:51:48.071Z,101676.06
2022-10-13T09:54:54.707Z,101679.38
2022-10-13T09:58:05.179Z,101672.84
2022-10-13T10:01:22.652Z,101680.09
2022-10-13T10:04:38.683Z,101683.97
2022-10-13T10:07:42.601Z,101685.75
2022-10-13T10:10:47.302Z,101668.06
2022-10-13T10:13:52.737Z,101654.91
2022-10-13T10:17:07.695Z,101646.22
2022-10-13T10:20:43.694Z,101651.50
2022-10-13T10:23:56.819Z,101632.38
2022-10-13T10:27:07.346Z,101638.94
2022-10-13T10:30:18.033Z,101642.75
2022-10-13T10:33:43.805Z,101644.69
2022-10-13T10:36:59.075Z,101648.28
2022-10-13T10:40:29.976Z,101638.84
2022-10-13T10:43:55.173Z,101635.28
2022-10-13T10:47:06.687Z,101645.72
2022-10-13T10:50:18.164Z,101644.44
2022-10-13T10:53:35.948Z,101643.22
2022-10-13T10:56:45.822Z,101631.09
2022-10-13T11:00:04.932Z,101633.34
2022-10-13T11:03:23.314Z,101627.88
2022-10-13T11:06:36.935Z,101625.53
2022-10-13T11:10:18.245Z,101625.44
2022-10-13T11:13:22.353Z,101620.28
2022-10-13T11:16:32.216Z,101609.97
2022-10-13T11:19:38.187Z,101606.09
2022-10-13T11:22:41.840Z,101601.44
2022-10-13T11:25:49.216Z,101594.22
2022-10-13T11:28:53.096Z,101584.94
2022-10-13T11:31:56.932Z,101591.69
2022-10-13T11:35:03.508Z,101588.25
2022-10-13T11:38:33.420Z,101584.63
2022-10-13T11:41:53.719Z,101583.56
2022-10-13T11:45:00.424Z,101580.38
2022-10-13T11:48:59.441Z,101566.78
2022-10-13T11:52:58.729Z,101569.03
2022-10-13T11:56:02.666Z,101573.66
2022-10-13T11:59:21.342Z,101562.19
2022-10-13T12:02:28.009Z,101566.78
2022-10-13T12:05:32.787Z,101569.13
2022-10-13T12:08:40.323Z,101564.38
2022-10-13T12:11:45.864Z,101565.91
2022-10-13T12:14:54.283Z,101553.50
2022-10-13T12:17:57.862Z,101545.94
2022-10-13T12:21:05.737Z,101553.19
2022-10-13T12:24:14.383Z,101552.00
2022-10-13T12:27:23.217Z,101551.84
2022-10-13T12:30:31.267Z,101551.28
2022-10-13T12:33:36.889Z,101564.25
2022-10-13T12:36:41.194Z,101569.47
2022-10-13T12:39:45.289Z,101568.03
2022-10-13T12:42:50.098Z,101563.38
2022-10-13T12:45:55.195Z,101557.47
2022-10-13T12:49:06.533Z,101566.22
2022-10-13T12:52:17.676Z,101566.38
2022-10-13T12:55:24.096Z,101558.34
2022-10-13T12:58:31.755Z,101561.84
2022-10-13T13:01:37.111Z,101554.91
2022-10-13T13:04:44.514Z,101559.44
2022-10-13T13:07:54.447Z,101555.66
2022-10-13T13:11:00.080Z,101554.53
2022-10-13T13:14:35.534Z,101548.38
2022-10-13T13:21:07.396Z,101556.44
2022-10-13T13:24:16.453Z,101563.03
2022-10-13T13:27:42.080Z,101560.81
2022-10-13T13:30:45.648Z,101562.28
2022-10-13T13:33:51.467Z,101565.22
2022-10-13T13:36:55.548Z,101568.22
2022-10-13T13:39:59.603Z,101568.34
2022-10-13T13:43:03.256Z,101574.25
2022-10-13T13:46:08.671Z,101565.59
2022-10-13T13:49:14.055Z,101562.03
2022-10-13T13:52:18.751Z,101563.69
2022-10-13T13:55:23.226Z,101563.53
2022-10-13T13:58:26.933Z,101556.88
2022-10-13T14:01:32.351Z,101553.44
2022-10-13T14:04:37.560Z,101561.16
2022-10-13T14:07:41.932Z,101553.31
2022-10-13T14:10:45.643Z,101549.41
2022-10-13T14:13:49.280Z,101557.41
2022-10-13T14:16:53.050Z,101558.50
2022-10-13T14:19:58.114Z,101558.38
2022-10-13T14:23:02.086Z,101552.53
2022-10-13T14:26:10.049Z,101549.00
2022-10-13T14:29:13.732Z,101544.47
2022-10-13T14:32:17.688Z,101550.44
2022-10-13T14:35:22.899Z,101542.69
2022-10-13T14:38:26.780Z,101539.75
2022-10-13T14:41:30.519Z,101540.91
2022-10-13T14:44:34.194Z,101538.94
2022-10-13T14:47:37.783Z,101539.94
2022-10-13T14:50:42.817Z,101533.81
2022-10-13T14:53:47.327Z,101540.06
2022-10-13T14:56:50.960Z,101541.09
2022-10-13T14:59:58.020Z,101538.84
2022-10-13T15:03:06.123Z,101541.69
2022-10-13T15:06:15.233Z,101547.19
2022-10-13T15:09:18.842Z,101553.09
2022-10-13T15:12:23.027Z,101552.66
2022-10-13T15:15:37.227Z,101552.13
2022-10-13T15:18:40.799Z,101555.78
2022-10-13T15:21:45.840Z,101553.44
2022-10-13T15:24:50.644Z,101565.91
2022-10-13T15:27:54.275Z,101555.66
2022-10-13T15:30:58.095Z,101559.19
2022-10-13T15:34:03.271Z,101563.75
2022-10-13T15:37:08.845Z,101560.31
2022-10-13T15:40:14.101Z,101561.41
2022-10-13T15:43:18.360Z,101560.50
2022-10-13T15:46:26.278Z,101557.81
2022-10-13T15:49:30.096Z,101563.16
2022-10-13T15:52:40.351Z,101566.81
2022-10-13T15:55:44.218Z,101566.81
2022-10-13T15:58:47.921Z,101562.53
2022-10-13T16:01:51.499Z,101560.84
2022-10-13T16:04:55.500Z,101558.25
2022-10-13T16:08:00.611Z,101557.34
2022-10-13T16:11:09.888Z,101559.97
2022-10-13T16:14:13.479Z,101554.81
2022-10-13T16:17:17.545Z,101557.50
2022-10-13T16:20:21.210Z,101556.53
2022-10-13T16:23:27.696Z,101563.47
2022-10-13T16:26:31.490Z,101562.94
2022-10-13T16:29:35.579Z,101560.34
2022-10-13T16:32:40.217Z,101560.06
2022-10-13T16:35:43.803Z,101559.56
2022-10-13T16:38:49.046Z,101558.84
2022-10-13T16:41:52.917Z,101561.47
2022-10-13T16:44:56.499Z,101559.06
2022-10-13T16:48:00.191Z,101568.88
2022-10-13T16:51:08.288Z,101566.97
2022-10-13T16:54:13.471Z,101559.06
2022-10-13T16:57:16.982Z,101555.44
2022-10-13T17:00:21.062Z,101562.53
2022-10-13T17:03:24.636Z,101558.84
2022-10-13T17:06:30.459Z,101564.72
2022-10-13T17:09:35.480Z,101556.19
2022-10-13T17:12:39.164Z,101555.31
2022-10-13T17:15:51.273Z,101560.69
2022-10-13T17:18:55.356Z,101566.91
2022-10-13T17:21:58.959Z,101562.31
2022-10-13T17:25:03.993Z,101555.44
2022-10-13T17:28:07.604Z,101556.38
2022-10-13T17:31:15.199Z,101559.69
2022-10-13T17:34:19.115Z,101559.13
2022-10-13T17:37:25.910Z,101557.34
2022-10-13T17:40:33.702Z,101563.63
2022-10-13T17:43:39.439Z,101570.63
2022-10-13T17:46:43.068Z,101562.78
2022-10-13T17:49:46.850Z,101568.19
2022-10-13T17:52:50.660Z,101562.16
2022-10-13T17:56:02.083Z,101564.84
2022-10-13T17:59:05.643Z,101571.06
2022-10-13T18:02:10.309Z,101568.53
2022-10-13T18:05:14.267Z,101572.00
2022-10-13T18:08:17.920Z,101570.38
2022-10-13T18:11:25.384Z,101569.31
2022-10-13T18:14:29.255Z,101567.69
2022-10-13T18:17:32.843Z,101570.38
2022-10-13T18:20:39.310Z,101567.84
2022-10-13T18:23:43.969Z,101577.59
2022-10-13T18:26:49.009Z,101573.94
2022-10-13T18:29:52.596Z,101576.63
2022-10-13T18:32:56.949Z,101578.47
2022-10-13T18:36:00.711Z,101581.22
2022-10-13T18:39:08.364Z,101583.84
2022-10-13T18:42:13.354Z,101581.31
2022-10-13T18:45:17.378Z,101593.56
2022-10-13T18:48:21.196Z,101584.00
2022-10-13T18:51:25.248Z,101581.22
2022-10-13T18:54:30.215Z,101582.16
2022-10-13T18:57:38.065Z,101570.91
2022-10-13T19:00:41.861Z,101576.09
2022-10-13T19:03:46.328Z,101582.31
2022-10-13T19:06:50.102Z,101580.38
2022-10-13T19:09:54.813Z,101570.00
2022-10-13T19:12:59.807Z,101574.44
2022-10-13T19:16:04.149Z,101571.84
2022-10-13T19:19:09.266Z,101573.53
2022-10-13T19:22:13.085Z,101570.97
2022-10-13T19:25:17.710Z,101564.91
2022-10-13T19:28:23.363Z,101571.06
2022-10-13T19:31:30.401Z,101569.34
2022-10-13T19:34:34.117Z,101567.47
2022-10-13T19:37:38.980Z,101570.97
2022-10-13T19:40:43.859Z,101569.28
2022-10-13T19:43:49.158Z,101564.84
2022-10-13T19:46:54.450Z,101570.06
2022-10-13T19:49:58.163Z,101573.53
2022-10-13T19:53:01.823Z,101566.47
2022-10-13T19:56:07.069Z,101562.06
2022-10-13T19:59:12.111Z,101559.63
2022-10-13T20:02:15.957Z,101564.13
2022-10-13T20:05:24.661Z,101565.03
2022-10-13T20:08:29.370Z,101573.88
2022-10-13T20:11:33.272Z,101569.50
2022-10-13T20:14:38.647Z,101573.81
2022-10-13T20:17:42.379Z,101570.41
2022-10-13T20:20:46.017Z,101576.50
2022-10-13T20:23:50.764Z,101578.06
2022-10-13T20:26:54.532Z,101578.28
2022-10-13T20:29:59.509Z,101585.28
2022-10-13T20:33:03.636Z,101586.13
2022-10-13T20:36:10.755Z,101592.38
2022-10-13T20:39:14.495Z,101588.03
2022-10-13T20:42:18.084Z,101585.34
2022-10-13T20:45:23.763Z,101591.50
2022-10-13T20:48:27.440Z,101585.38
2022-10-13T20:51:31.268Z,101587.97
2022-10-13T20:54:34.963Z,101594.09
2022-10-13T20:57:38.929Z,101584.56
2022-10-13T21:00:46.165Z,101587.19
2022-10-13T21:03:53.417Z,101585.38
2022-10-13T21:06:57.123Z,101582.84
2022-10-13T21:10:00.694Z,101589.81
2022-10-13T21:13:04.934Z,101590.75
2022-10-13T21:16:12.881Z,101601.38
2022-10-13T21:19:16.536Z,101595.28
2022-10-13T21:22:21.159Z,101592.78
2022-10-13T21:25:24.819Z,101598.16
2022-10-13T21:28:28.724Z,101597.31
2022-10-13T21:31:33.831Z,101588.63
2022-10-13T21:34:37.456Z,101589.56
2022-10-13T21:37:41.052Z,101589.63
2022-10-13T21:40:44.723Z,101593.19
2022-10-13T21:43:48.915Z,101594.13
2022-10-13T21:46:53.963Z,101595.91
2022-10-13T21:49:57.608Z,101588.91
2022-10-13T21:53:01.316Z,101590.72
2022-10-13T21:56:07.980Z,101588.97
2022-10-13T21:59:14.155Z,101584.59
2022-10-13T22:02:19.146Z,101588.97
2022-10-13T22:05:22.786Z,101584.47
2022-10-13T22:08:37.920Z,101581.06
2022-10-13T22:11:43.507Z,101585.44
2022-10-13T22:14:47.487Z,101586.38
2022-10-13T22:17:52.419Z,101581.13
2022-10-13T22:20:55.992Z,101585.50
2022-10-13T22:24:02.924Z,101583.75
2022-10-13T22:27:06.502Z,101586.28
2022-10-13T22:30:11.473Z,101578.44
2022-10-13T22:33:16.590Z,101588.13
2022-10-13T22:36:23.315Z,101583.78
2022-10-13T22:39:27.659Z,101586.28
2022-10-13T22:42:31.168Z,101577.66
2022-10-13T22:45:41.059Z,101580.25
2022-10-13T22:48:46.127Z,101577.66
2022-10-13T22:51:49.726Z,101577.66
2022-10-13T22:54:53.313Z,101569.81
2022-10-13T22:57:57.029Z,101567.19
2022-10-13T23:01:06.607Z,101567.22
2022-10-13T23:04:11.806Z,101562.03
2022-10-13T23:07:15.351Z,101564.75
2022-10-13T23:10:19.460Z,101555.94
2022-10-13T23:13:23.035Z,101553.34
2022-10-13T23:16:27.286Z,101549.69
2022-10-13T23:19:32.284Z,101549.97
2022-10-13T23:22:35.935Z,101551.72
2022-10-13T23:25:39.751Z,101547.88
2022-10-13T23:28:44.303Z,101538.50
2022-10-13T23:31:47.982Z,101537.56
2022-10-13T23:34:53.102Z,101548.19
2022-10-13T23:37:56.765Z,101543.47
2022-10-13T23:41:05.955Z,101549.81
2022-10-13T23:44:09.565Z,101550.75
2022-10-13T23:47:13.183Z,101539.34
2022-10-13T23:50:18.434Z,101545.44
2022-10-13T23:53:22.881Z,101544.66
2022-10-13T23:56:26.583Z,101540.25
2022-10-13T23:59:30.212Z,101544.47
